sensor_id;sensor_type;location;lat;lon;timestamp;temperature;humidity
75821;DHT22;64454;51.984;9.838;2023-07-13T00:02:04;20.30;1.00
75821;DHT22;64454;51.984;9.838;2023-07-13T00:04:31;20.30;1.00
75821;DHT22;64454;51.984;9.838;2023-07-13T00:06:59;20.40;1.00
75821;DHT22;64454;51.984;9.838;2023-07-13T00:09:26;20.40;1.00
75821;DHT22;64454;51.984;9.838;2023-07-13T00:11:54;20.40;1.00
75821;DHT22;64454;51.984;9.838;2023-07-13T00:14:24;20.50;1.00
75821;DHT22;64454;51.984;9.838;2023-07-13T00:16:52;20.50;1.00
75821;DHT22;64454;51.984;9.838;2023-07-13T00:19:20;20.50;1.00
75821;DHT22;64454;51.984;9.838;2023-07-13T00:21:47;20.40;1.00
75821;DHT22;64454;51.984;9.838;2023-07-13T00:24:18;20.40;1.00
75821;DHT22;64454;51.984;9.838;2023-07-13T00:26:49;20.40;1.00
75821;DHT22;64454;51.984;9.838;2023-07-13T00:29:18;20.20;1.00
75821;DHT22;64454;51.984;9.838;2023-07-13T00:31:46;20.00;1.00
75821;DHT22;64454;51.984;9.838;2023-07-13T00:34:14;20.00;1.00
75821;DHT22;64454;51.984;9.838;2023-07-13T00:36:43;19.90;1.00
75821;DHT22;64454;51.984;9.838;2023-07-13T00:39:10;19.90;1.00
75821;DHT22;64454;51.984;9.838;2023-07-13T00:41:38;19.90;1.00
75821;DHT22;64454;51.984;9.838;2023-07-13T00:44:07;19.80;1.00
75821;DHT22;64454;51.984;9.838;2023-07-13T00:46:40;19.80;1.00
75821;DHT22;64454;51.984;9.838;2023-07-13T00:49:16;19.70;1.00
75821;DHT22;64454;51.984;9.838;2023-07-13T00:51:50;19.70;1.00
75821;DHT22;64454;51.984;9.838;2023-07-13T00:54:25;19.70;1.00
75821;DHT22;64454;51.984;9.838;2023-07-13T00:56:59;19.70;1.00
75821;DHT22;64454;51.984;9.838;2023-07-13T00:59:28;19.70;1.00
75821;DHT22;64454;51.984;9.838;2023-07-13T01:01:56;19.70;1.00
75821;DHT22;64454;51.984;9.838;2023-07-13T01:04:24;19.60;1.00
75821;DHT22;64454;51.984;9.838;2023-07-13T01:06:51;19.60;1.00
75821;DHT22;64454;51.984;9.838;2023-07-13T01:09:20;19.60;1.00
75821;DHT22;64454;51.984;9.838;2023-07-13T01:11:48;19.60;1.00
75821;DHT22;64454;51.984;9.838;2023-07-13T01:14:18;19.50;1.00
75821;DHT22;64454;51.984;9.838;2023-07-13T01:16:46;19.40;1.00
75821;DHT22;64454;51.984;9.838;2023-07-13T01:19:26;19.30;1.00
75821;DHT22;64454;51.984;9.838;2023-07-13T01:22:03;19.20;1.00
75821;DHT22;64454;51.984;9.838;2023-07-13T01:24:34;19.10;1.00
75821;DHT22;64454;51.984;9.838;2023-07-13T01:27:05;18.90;1.00
75821;DHT22;64454;51.984;9.838;2023-07-13T01:29:35;18.80;1.00
75821;DHT22;64454;51.984;9.838;2023-07-13T01:32:08;18.60;1.00
75821;DHT22;64454;51.984;9.838;2023-07-13T01:34:36;18.50;1.00
75821;DHT22;64454;51.984;9.838;2023-07-13T01:37:05;18.40;1.00
75821;DHT22;64454;51.984;9.838;2023-07-13T01:39:32;18.40;1.00
75821;DHT22;64454;51.984;9.838;2023-07-13T01:41:59;18.40;1.00
75821;DHT22;64454;51.984;9.838;2023-07-13T01:44:26;18.50;1.00
75821;DHT22;64454;51.984;9.838;2023-07-13T01:46:53;18.50;1.00
75821;DHT22;64454;51.984;9.838;2023-07-13T01:49:21;18.60;1.00
75821;DHT22;64454;51.984;9.838;2023-07-13T01:51:48;18.60;1.00
75821;DHT22;64454;51.984;9.838;2023-07-13T01:54:18;18.50;1.00
75821;DHT22;64454;51.984;9.838;2023-07-13T01:56:46;18.30;1.00
75821;DHT22;64454;51.984;9.838;2023-07-13T01:59:14;18.30;1.00
75821;DHT22;64454;51.984;9.838;2023-07-13T02:01:42;18.20;1.00
75821;DHT22;64454;51.984;9.838;2023-07-13T02:04:09;18.20;1.00
75821;DHT22;64454;51.984;9.838;2023-07-13T02:06:36;18.20;1.00
75821;DHT22;64454;51.984;9.838;2023-07-13T02:09:03;18.30;1.00
75821;DHT22;64454;51.984;9.838;2023-07-13T02:11:32;18.40;1.00
75821;DHT22;64454;51.984;9.838;2023-07-13T02:14:00;18.40;1.00
75821;DHT22;64454;51.984;9.838;2023-07-13T02:16:28;18.50;1.00
75821;DHT22;64454;51.984;9.838;2023-07-13T02:18:55;18.50;1.00
75821;DHT22;64454;51.984;9.838;2023-07-13T02:21:22;18.50;1.00
75821;DHT22;64454;51.984;9.838;2023-07-13T02:23:50;18.40;1.00
75821;DHT22;64454;51.984;9.838;2023-07-13T02:26:17;18.30;1.00
75821;DHT22;64454;51.984;9.838;2023-07-13T02:28:46;18.20;1.00
75821;DHT22;64454;51.984;9.838;2023-07-13T02:31:14;18.10;1.00
75821;DHT22;64454;51.984;9.838;2023-07-13T02:33:42;18.00;1.00
75821;DHT22;64454;51.984;9.838;2023-07-13T02:36:09;17.90;1.00
75821;DHT22;64454;51.984;9.838;2023-07-13T02:38:37;17.90;1.00
75821;DHT22;64454;51.984;9.838;2023-07-13T02:41:05;17.90;1.00
75821;DHT22;64454;51.984;9.838;2023-07-13T02:43:34;17.90;1.00
75821;DHT22;64454;51.984;9.838;2023-07-13T02:46:02;18.00;1.00
75821;DHT22;64454;51.984;9.838;2023-07-13T02:48:32;18.00;1.00
75821;DHT22;64454;51.984;9.838;2023-07-13T02:50:59;18.10;1.00
75821;DHT22;64454;51.984;9.838;2023-07-13T02:53:26;18.10;1.00
75821;DHT22;64454;51.984;9.838;2023-07-13T02:55:53;18.10;1.00
75821;DHT22;64454;51.984;9.838;2023-07-13T02:58:20;18.00;1.00
75821;DHT22;64454;51.984;9.838;2023-07-13T03:00:47;17.90;1.00
75821;DHT22;64454;51.984;9.838;2023-07-13T03:03:16;17.90;1.00
75821;DHT22;64454;51.984;9.838;2023-07-13T03:05:44;17.80;1.00
75821;DHT22;64454;51.984;9.838;2023-07-13T03:08:16;17.90;1.00
75821;DHT22;64454;51.984;9.838;2023-07-13T03:10:43;17.90;1.00
75821;DHT22;64454;51.984;9.838;2023-07-13T03:13:10;18.00;1.00
75821;DHT22;64454;51.984;9.838;2023-07-13T03:15:37;18.10;1.00
75821;DHT22;64454;51.984;9.838;2023-07-13T03:18:04;18.10;1.00
75821;DHT22;64454;51.984;9.838;2023-07-13T03:20:33;18.20;1.00
75821;DHT22;64454;51.984;9.838;2023-07-13T03:23:00;18.20;1.00
75821;DHT22;64454;51.984;9.838;2023-07-13T03:25:28;18.20;1.00
75821;DHT22;64454;51.984;9.838;2023-07-13T03:27:55;18.10;1.00
75821;DHT22;64454;51.984;9.838;2023-07-13T03:30:22;18.00;1.00
75821;DHT22;64454;51.984;9.838;2023-07-13T03:32:49;17.90;1.00
75821;DHT22;64454;51.984;9.838;2023-07-13T03:35:16;17.70;1.00
75821;DHT22;64454;51.984;9.838;2023-07-13T03:37:44;17.60;1.00
75821;DHT22;64454;51.984;9.838;2023-07-13T03:40:11;17.60;1.00
75821;DHT22;64454;51.984;9.838;2023-07-13T03:42:39;17.60;1.00
75821;DHT22;64454;51.984;9.838;2023-07-13T03:45:06;17.70;1.00
75821;DHT22;64454;51.984;9.838;2023-07-13T03:47:34;17.80;1.00
75821;DHT22;64454;51.984;9.838;2023-07-13T03:50:01;17.80;1.00
75821;DHT22;64454;51.984;9.838;2023-07-13T03:52:29;17.80;1.00
75821;DHT22;64454;51.984;9.838;2023-07-13T03:54:57;17.90;1.00
75821;DHT22;64454;51.984;9.838;2023-07-13T03:57:24;17.90;1.00
75821;DHT22;64454;51.984;9.838;2023-07-13T03:59:51;17.90;1.00
75821;DHT22;64454;51.984;9.838;2023-07-13T04:02:18;17.90;1.00
75821;DHT22;64454;51.984;9.838;2023-07-13T04:04:45;17.90;1.00
75821;DHT22;64454;51.984;9.838;2023-07-13T04:07:12;17.80;1.00
75821;DHT22;64454;51.984;9.838;2023-07-13T04:09:39;17.70;1.00
75821;DHT22;64454;51.984;9.838;2023-07-13T04:12:07;17.60;1.00
75821;DHT22;64454;51.984;9.838;2023-07-13T04:14:34;17.40;1.00
75821;DHT22;64454;51.984;9.838;2023-07-13T04:17:01;17.20;1.00
75821;DHT22;64454;51.984;9.838;2023-07-13T04:19:28;17.20;1.00
75821;DHT22;64454;51.984;9.838;2023-07-13T04:21:55;17.00;1.00
75821;DHT22;64454;51.984;9.838;2023-07-13T04:24:22;16.90;1.00
75821;DHT22;64454;51.984;9.838;2023-07-13T04:26:48;16.90;1.00
75821;DHT22;64454;51.984;9.838;2023-07-13T04:29:18;16.90;1.00
75821;DHT22;64454;51.984;9.838;2023-07-13T04:31:47;16.80;1.00
75821;DHT22;64454;51.984;9.838;2023-07-13T04:34:15;16.80;1.00
75821;DHT22;64454;51.984;9.838;2023-07-13T04:36:43;16.90;1.00
75821;DHT22;64454;51.984;9.838;2023-07-13T04:39:10;16.90;1.10
75821;DHT22;64454;51.984;9.838;2023-07-13T04:41:37;17.00;2.50
75821;DHT22;64454;51.984;9.838;2023-07-13T04:44:04;17.20;8.30
75821;DHT22;64454;51.984;9.838;2023-07-13T04:46:32;17.40;1.00
75821;DHT22;64454;51.984;9.838;2023-07-13T04:48:59;17.60;1.00
75821;DHT22;64454;51.984;9.838;2023-07-13T04:51:28;17.70;1.00
75821;DHT22;64454;51.984;9.838;2023-07-13T04:53:56;17.80;1.00
75821;DHT22;64454;51.984;9.838;2023-07-13T04:56:22;17.90;1.00
75821;DHT22;64454;51.984;9.838;2023-07-13T04:58:49;18.00;1.00
75821;DHT22;64454;51.984;9.838;2023-07-13T05:01:16;18.00;1.00
75821;DHT22;64454;51.984;9.838;2023-07-13T05:03:44;18.10;1.00
75821;DHT22;64454;51.984;9.838;2023-07-13T05:06:11;18.10;1.00
75821;DHT22;64454;51.984;9.838;2023-07-13T05:08:39;18.00;1.00
75821;DHT22;64454;51.984;9.838;2023-07-13T05:11:06;18.10;1.00
75821;DHT22;64454;51.984;9.838;2023-07-13T05:13:33;18.20;1.00
75821;DHT22;64454;51.984;9.838;2023-07-13T05:16:01;18.20;1.00
75821;DHT22;64454;51.984;9.838;2023-07-13T05:18:30;18.20;1.00
75821;DHT22;64454;51.984;9.838;2023-07-13T05:21:01;18.20;1.00
75821;DHT22;64454;51.984;9.838;2023-07-13T05:23:29;18.30;1.00
75821;DHT22;64454;51.984;9.838;2023-07-13T05:25:56;18.40;1.00
75821;DHT22;64454;51.984;9.838;2023-07-13T05:28:24;18.40;1.00
75821;DHT22;64454;51.984;9.838;2023-07-13T05:30:51;18.50;1.00
75821;DHT22;64454;51.984;9.838;2023-07-13T05:33:19;18.60;1.00
75821;DHT22;64454;51.984;9.838;2023-07-13T05:35:46;18.70;1.00
75821;DHT22;64454;51.984;9.838;2023-07-13T05:38:15;18.80;1.00
75821;DHT22;64454;51.984;9.838;2023-07-13T05:40:42;18.80;1.00
75821;DHT22;64454;51.984;9.838;2023-07-13T05:43:09;18.80;1.00
75821;DHT22;64454;51.984;9.838;2023-07-13T05:45:36;18.80;1.00
75821;DHT22;64454;51.984;9.838;2023-07-13T05:48:03;18.80;1.00
75821;DHT22;64454;51.984;9.838;2023-07-13T05:50:30;18.80;1.00
75821;DHT22;64454;51.984;9.838;2023-07-13T05:52:58;18.70;1.00
75821;DHT22;64454;51.984;9.838;2023-07-13T05:55:26;18.80;1.00
75821;DHT22;64454;51.984;9.838;2023-07-13T05:57:52;18.90;1.00
75821;DHT22;64454;51.984;9.838;2023-07-13T06:00:19;19.00;1.00
75821;DHT22;64454;51.984;9.838;2023-07-13T06:02:46;19.10;1.00
75821;DHT22;64454;51.984;9.838;2023-07-13T06:05:13;19.10;1.00
75821;DHT22;64454;51.984;9.838;2023-07-13T06:07:41;19.20;1.00
75821;DHT22;64454;51.984;9.838;2023-07-13T06:10:08;19.40;1.00
75821;DHT22;64454;51.984;9.838;2023-07-13T06:12:37;19.40;1.00
75821;DHT22;64454;51.984;9.838;2023-07-13T06:15:05;19.50;1.00
75821;DHT22;64454;51.984;9.838;2023-07-13T06:17:33;19.60;1.00
75821;DHT22;64454;51.984;9.838;2023-07-13T06:19:59;19.70;1.00
75821;DHT22;64454;51.984;9.838;2023-07-13T06:22:26;19.80;1.00
75821;DHT22;64454;51.984;9.838;2023-07-13T06:24:53;19.90;1.00
75821;DHT22;64454;51.984;9.838;2023-07-13T06:27:20;20.00;1.00
75821;DHT22;64454;51.984;9.838;2023-07-13T06:29:48;20.10;1.00
75821;DHT22;64454;51.984;9.838;2023-07-13T06:32:15;20.20;1.00
75821;DHT22;64454;51.984;9.838;2023-07-13T06:34:42;20.30;1.00
75821;DHT22;64454;51.984;9.838;2023-07-13T06:37:09;20.40;1.00
75821;DHT22;64454;51.984;9.838;2023-07-13T06:39:36;20.50;1.00
75821;DHT22;64454;51.984;9.838;2023-07-13T06:42:03;20.60;1.00
75821;DHT22;64454;51.984;9.838;2023-07-13T06:44:30;20.60;1.00
75821;DHT22;64454;51.984;9.838;2023-07-13T06:46:59;20.60;1.00
75821;DHT22;64454;51.984;9.838;2023-07-13T06:49:25;20.60;1.00
75821;DHT22;64454;51.984;9.838;2023-07-13T06:51:52;20.70;1.00
75821;DHT22;64454;51.984;9.838;2023-07-13T06:54:20;20.60;1.00
75821;DHT22;64454;51.984;9.838;2023-07-13T06:56:47;20.60;1.00
75821;DHT22;64454;51.984;9.838;2023-07-13T06:59:15;20.60;1.00
75821;DHT22;64454;51.984;9.838;2023-07-13T07:01:44;20.70;1.00
75821;DHT22;64454;51.984;9.838;2023-07-13T07:04:12;20.60;1.00
75821;DHT22;64454;51.984;9.838;2023-07-13T07:06:39;20.70;1.00
75821;DHT22;64454;51.984;9.838;2023-07-13T07:09:06;20.80;1.00
75821;DHT22;64454;51.984;9.838;2023-07-13T07:11:34;20.90;1.00
75821;DHT22;64454;51.984;9.838;2023-07-13T07:14:01;20.90;1.00
75821;DHT22;64454;51.984;9.838;2023-07-13T07:16:28;20.90;1.00
75821;DHT22;64454;51.984;9.838;2023-07-13T07:18:54;20.90;1.00
75821;DHT22;64454;51.984;9.838;2023-07-13T07:21:23;21.00;1.00
75821;DHT22;64454;51.984;9.838;2023-07-13T07:23:51;21.10;1.00
75821;DHT22;64454;51.984;9.838;2023-07-13T07:26:18;21.20;1.00
75821;DHT22;64454;51.984;9.838;2023-07-13T07:28:45;21.40;1.00
75821;DHT22;64454;51.984;9.838;2023-07-13T07:31:12;21.50;1.00
75821;DHT22;64454;51.984;9.838;2023-07-13T07:33:39;21.40;1.00
75821;DHT22;64454;51.984;9.838;2023-07-13T07:36:06;21.60;1.00
75821;DHT22;64454;51.984;9.838;2023-07-13T07:38:34;21.50;1.00
75821;DHT22;64454;51.984;9.838;2023-07-13T07:41:03;21.70;1.00
75821;DHT22;64454;51.984;9.838;2023-07-13T07:43:31;21.90;1.00
75821;DHT22;64454;51.984;9.838;2023-07-13T07:45:58;22.10;1.00
75821;DHT22;64454;51.984;9.838;2023-07-13T07:48:24;22.20;1.00
75821;DHT22;64454;51.984;9.838;2023-07-13T07:50:51;22.40;1.00
75821;DHT22;64454;51.984;9.838;2023-07-13T07:53:18;22.50;1.00
75821;DHT22;64454;51.984;9.838;2023-07-13T07:55:46;22.60;1.00
75821;DHT22;64454;51.984;9.838;2023-07-13T07:58:14;22.70;1.00
75821;DHT22;64454;51.984;9.838;2023-07-13T08:00:41;22.80;1.00
75821;DHT22;64454;51.984;9.838;2023-07-13T08:03:09;22.60;1.00
75821;DHT22;64454;51.984;9.838;2023-07-13T08:05:36;22.60;1.00
75821;DHT22;64454;51.984;9.838;2023-07-13T08:08:04;22.60;1.00
75821;DHT22;64454;51.984;9.838;2023-07-13T08:10:31;22.60;1.00
75821;DHT22;64454;51.984;9.838;2023-07-13T08:12:59;22.30;1.00
75821;DHT22;64454;51.984;9.838;2023-07-13T08:15:26;22.10;1.00
75821;DHT22;64454;51.984;9.838;2023-07-13T08:17:53;22.20;1.00
75821;DHT22;64454;51.984;9.838;2023-07-13T08:20:19;22.10;1.00
75821;DHT22;64454;51.984;9.838;2023-07-13T08:34:01;22.70;1.00
75821;DHT22;64454;51.984;9.838;2023-07-13T08:36:29;22.70;1.00
75821;DHT22;64454;51.984;9.838;2023-07-13T08:38:56;22.90;1.00
75821;DHT22;64454;51.984;9.838;2023-07-13T08:41:23;23.10;1.00
75821;DHT22;64454;51.984;9.838;2023-07-13T08:43:56;23.30;1.00
75821;DHT22;64454;51.984;9.838;2023-07-13T08:46:28;23.20;1.00
75821;DHT22;64454;51.984;9.838;2023-07-13T08:49:04;23.30;1.00
75821;DHT22;64454;51.984;9.838;2023-07-13T08:51:38;23.30;1.00
75821;DHT22;64454;51.984;9.838;2023-07-13T08:54:17;23.30;1.00
75821;DHT22;64454;51.984;9.838;2023-07-13T08:56:50;23.40;1.00
75821;DHT22;64454;51.984;9.838;2023-07-13T08:59:24;23.20;1.00
75821;DHT22;64454;51.984;9.838;2023-07-13T09:02:20;23.10;1.00
75821;DHT22;64454;51.984;9.838;2023-07-13T09:04:56;23.00;1.00
75821;DHT22;64454;51.984;9.838;2023-07-13T09:07:38;23.00;1.00
75821;DHT22;64454;51.984;9.838;2023-07-13T09:10:20;23.20;1.00
75821;DHT22;64454;51.984;9.838;2023-07-13T09:13:00;23.30;1.00
75821;DHT22;64454;51.984;9.838;2023-07-13T09:15:41;23.40;1.00
75821;DHT22;64454;51.984;9.838;2023-07-13T09:18:12;23.40;1.00
75821;DHT22;64454;51.984;9.838;2023-07-13T09:20:48;23.40;1.00
75821;DHT22;64454;51.984;9.838;2023-07-13T09:23:20;23.30;1.00
75821;DHT22;64454;51.984;9.838;2023-07-13T09:25:51;23.10;1.00
75821;DHT22;64454;51.984;9.838;2023-07-13T09:28:23;22.90;1.00
75821;DHT22;64454;51.984;9.838;2023-07-13T09:30:56;23.00;1.00
75821;DHT22;64454;51.984;9.838;2023-07-13T09:33:27;23.10;1.00
75821;DHT22;64454;51.984;9.838;2023-07-13T09:35:57;23.40;1.00
75821;DHT22;64454;51.984;9.838;2023-07-13T09:38:27;23.50;1.00
75821;DHT22;64454;51.984;9.838;2023-07-13T09:41:08;24.10;1.00
75821;DHT22;64454;51.984;9.838;2023-07-13T09:44:06;24.30;1.00
75821;DHT22;64454;51.984;9.838;2023-07-13T09:46:37;24.50;1.00
75821;DHT22;64454;51.984;9.838;2023-07-13T09:49:07;24.60;1.00
75821;DHT22;64454;51.984;9.838;2023-07-13T09:51:38;24.90;1.00
75821;DHT22;64454;51.984;9.838;2023-07-13T09:54:18;24.90;1.00
75821;DHT22;64454;51.984;9.838;2023-07-13T09:56:47;25.30;1.00
75821;DHT22;64454;51.984;9.838;2023-07-13T09:59:22;25.20;1.00
75821;DHT22;64454;51.984;9.838;2023-07-13T10:01:50;25.00;1.00
75821;DHT22;64454;51.984;9.838;2023-07-13T10:04:22;24.60;1.00
75821;DHT22;64454;51.984;9.838;2023-07-13T10:07:05;24.70;1.00
75821;DHT22;64454;51.984;9.838;2023-07-13T10:09:33;24.80;1.00
75821;DHT22;64454;51.984;9.838;2023-07-13T10:12:00;25.10;1.00
75821;DHT22;64454;51.984;9.838;2023-07-13T10:14:29;25.20;1.00
75821;DHT22;64454;51.984;9.838;2023-07-13T10:16:58;25.10;1.00
75821;DHT22;64454;51.984;9.838;2023-07-13T10:19:29;25.60;1.00
75821;DHT22;64454;51.984;9.838;2023-07-13T10:22:02;26.10;1.00
75821;DHT22;64454;51.984;9.838;2023-07-13T10:24:37;26.60;1.00
75821;DHT22;64454;51.984;9.838;2023-07-13T10:27:13;26.70;1.00
75821;DHT22;64454;51.984;9.838;2023-07-13T10:29:46;26.90;1.00
75821;DHT22;64454;51.984;9.838;2023-07-13T10:32:19;26.90;1.00
75821;DHT22;64454;51.984;9.838;2023-07-13T10:34:49;27.00;1.00
75821;DHT22;64454;51.984;9.838;2023-07-13T10:37:22;27.40;1.00
75821;DHT22;64454;51.984;9.838;2023-07-13T10:39:55;27.70;1.00
75821;DHT22;64454;51.984;9.838;2023-07-13T10:42:27;28.00;1.00
75821;DHT22;64454;51.984;9.838;2023-07-13T10:44:57;28.00;1.00
75821;DHT22;64454;51.984;9.838;2023-07-13T10:47:24;28.20;1.00
75821;DHT22;64454;51.984;9.838;2023-07-13T10:49:56;28.20;1.00
75821;DHT22;64454;51.984;9.838;2023-07-13T10:52:45;28.00;1.00
75821;DHT22;64454;51.984;9.838;2023-07-13T10:55:33;27.90;1.00
75821;DHT22;64454;51.984;9.838;2023-07-13T10:58:11;27.80;1.00
75821;DHT22;64454;51.984;9.838;2023-07-13T11:00:48;27.70;1.00
75821;DHT22;64454;51.984;9.838;2023-07-13T11:03:19;27.50;1.00
75821;DHT22;64454;51.984;9.838;2023-07-13T11:05:49;27.30;1.00
75821;DHT22;64454;51.984;9.838;2023-07-13T11:08:33;27.50;1.00
75821;DHT22;64454;51.984;9.838;2023-07-13T11:11:03;27.70;1.00
75821;DHT22;64454;51.984;9.838;2023-07-13T11:13:57;28.00;1.00
75821;DHT22;64454;51.984;9.838;2023-07-13T11:16:44;28.40;1.00
75821;DHT22;64454;51.984;9.838;2023-07-13T11:22:24;28.60;1.00
75821;DHT22;64454;51.984;9.838;2023-07-13T11:25:21;28.50;1.00
75821;DHT22;64454;51.984;9.838;2023-07-13T11:28:06;28.60;1.00
75821;DHT22;64454;51.984;9.838;2023-07-13T11:30:46;28.50;1.00
75821;DHT22;64454;51.984;9.838;2023-07-13T11:33:17;28.40;1.00
75821;DHT22;64454;51.984;9.838;2023-07-13T11:35:53;28.20;1.00
75821;DHT22;64454;51.984;9.838;2023-07-13T11:38:30;28.20;1.00
75821;DHT22;64454;51.984;9.838;2023-07-13T11:41:04;28.20;1.00
75821;DHT22;64454;51.984;9.838;2023-07-13T11:43:33;28.60;1.00
75821;DHT22;64454;51.984;9.838;2023-07-13T11:46:13;28.80;1.00
75821;DHT22;64454;51.984;9.838;2023-07-13T11:48:42;28.70;1.00
75821;DHT22;64454;51.984;9.838;2023-07-13T11:51:19;28.90;1.00
75821;DHT22;64454;51.984;9.838;2023-07-13T11:53:51;29.20;1.00
75821;DHT22;64454;51.984;9.838;2023-07-13T11:56:22;29.20;1.00
75821;DHT22;64454;51.984;9.838;2023-07-13T11:58:52;29.50;1.00
75821;DHT22;64454;51.984;9.838;2023-07-13T12:01:23;29.40;1.00
75821;DHT22;64454;51.984;9.838;2023-07-13T12:03:55;29.40;1.00
75821;DHT22;64454;51.984;9.838;2023-07-13T12:06:26;29.00;1.00
75821;DHT22;64454;51.984;9.838;2023-07-13T12:08:56;28.80;1.00
75821;DHT22;64454;51.984;9.838;2023-07-13T12:11:27;28.40;1.00
75821;DHT22;64454;51.984;9.838;2023-07-13T12:13:54;28.10;1.00
75821;DHT22;64454;51.984;9.838;2023-07-13T12:16:26;27.90;1.00
75821;DHT22;64454;51.984;9.838;2023-07-13T12:18:56;27.90;1.00
75821;DHT22;64454;51.984;9.838;2023-07-13T12:21:30;28.30;1.00
75821;DHT22;64454;51.984;9.838;2023-07-13T12:23:59;28.70;1.00
75821;DHT22;64454;51.984;9.838;2023-07-13T12:26:30;29.00;1.00
75821;DHT22;64454;51.984;9.838;2023-07-13T12:28:59;29.20;1.00
75821;DHT22;64454;51.984;9.838;2023-07-13T12:31:35;28.90;1.00
75821;DHT22;64454;51.984;9.838;2023-07-13T12:34:09;28.70;1.00
75821;DHT22;64454;51.984;9.838;2023-07-13T12:36:41;28.60;1.00
75821;DHT22;64454;51.984;9.838;2023-07-13T12:39:17;28.20;1.00
75821;DHT22;64454;51.984;9.838;2023-07-13T12:41:51;28.20;1.00
75821;DHT22;64454;51.984;9.838;2023-07-13T12:44:24;28.20;1.00
75821;DHT22;64454;51.984;9.838;2023-07-13T12:46:57;27.90;1.00
75821;DHT22;64454;51.984;9.838;2023-07-13T12:49:29;27.90;1.00
75821;DHT22;64454;51.984;9.838;2023-07-13T12:52:02;28.10;1.00
75821;DHT22;64454;51.984;9.838;2023-07-13T12:54:30;28.50;1.00
75821;DHT22;64454;51.984;9.838;2023-07-13T12:56:59;28.80;1.00
75821;DHT22;64454;51.984;9.838;2023-07-13T12:59:31;28.90;1.00
75821;DHT22;64454;51.984;9.838;2023-07-13T13:02:02;28.60;1.00
75821;DHT22;64454;51.984;9.838;2023-07-13T13:04:49;28.50;1.00
75821;DHT22;64454;51.984;9.838;2023-07-13T13:07:16;28.30;1.00
75821;DHT22;64454;51.984;9.838;2023-07-13T13:09:43;28.40;1.00
75821;DHT22;64454;51.984;9.838;2023-07-13T13:12:11;28.20;1.00
75821;DHT22;64454;51.984;9.838;2023-07-13T13:14:38;28.20;1.00
75821;DHT22;64454;51.984;9.838;2023-07-13T13:17:18;28.20;1.00
75821;DHT22;64454;51.984;9.838;2023-07-13T13:19:47;28.40;1.00
75821;DHT22;64454;51.984;9.838;2023-07-13T13:22:15;28.30;1.00
75821;DHT22;64454;51.984;9.838;2023-07-13T13:24:43;28.10;1.00
75821;DHT22;64454;51.984;9.838;2023-07-13T13:27:15;28.10;1.00
75821;DHT22;64454;51.984;9.838;2023-07-13T13:29:44;27.70;1.00
75821;DHT22;64454;51.984;9.838;2023-07-13T13:32:13;27.60;1.00
75821;DHT22;64454;51.984;9.838;2023-07-13T13:34:41;27.40;1.00
75821;DHT22;64454;51.984;9.838;2023-07-13T13:37:18;27.20;1.00
75821;DHT22;64454;51.984;9.838;2023-07-13T13:39:46;27.00;1.00
75821;DHT22;64454;51.984;9.838;2023-07-13T13:42:15;26.90;1.00
75821;DHT22;64454;51.984;9.838;2023-07-13T13:44:42;26.80;1.00
75821;DHT22;64454;51.984;9.838;2023-07-13T13:47:21;26.80;1.00
75821;DHT22;64454;51.984;9.838;2023-07-13T13:49:55;27.10;1.00
75821;DHT22;64454;51.984;9.838;2023-07-13T13:52:23;27.40;1.00
75821;DHT22;64454;51.984;9.838;2023-07-13T13:54:50;27.50;1.00
75821;DHT22;64454;51.984;9.838;2023-07-13T13:57:23;27.60;1.00
75821;DHT22;64454;51.984;9.838;2023-07-13T13:59:51;27.60;1.00
75821;DHT22;64454;51.984;9.838;2023-07-13T14:02:24;27.50;1.00
75821;DHT22;64454;51.984;9.838;2023-07-13T14:04:55;27.40;1.00
75821;DHT22;64454;51.984;9.838;2023-07-13T14:07:24;27.40;1.00
75821;DHT22;64454;51.984;9.838;2023-07-13T14:09:52;27.40;1.00
75821;DHT22;64454;51.984;9.838;2023-07-13T14:12:21;27.30;1.00
75821;DHT22;64454;51.984;9.838;2023-07-13T14:14:50;27.20;1.00
75821;DHT22;64454;51.984;9.838;2023-07-13T14:17:20;27.10;1.00
75821;DHT22;64454;51.984;9.838;2023-07-13T14:19:50;26.90;1.00
75821;DHT22;64454;51.984;9.838;2023-07-13T14:22:22;26.70;1.00
75821;DHT22;64454;51.984;9.838;2023-07-13T14:24:52;26.80;1.00
75821;DHT22;64454;51.984;9.838;2023-07-13T14:27:21;27.10;1.00
75821;DHT22;64454;51.984;9.838;2023-07-13T14:29:48;27.20;1.00
75821;DHT22;64454;51.984;9.838;2023-07-13T14:32:15;27.40;1.00
75821;DHT22;64454;51.984;9.838;2023-07-13T14:34:42;27.60;1.00
75821;DHT22;64454;51.984;9.838;2023-07-13T14:37:12;27.70;1.00
75821;DHT22;64454;51.984;9.838;2023-07-13T14:39:43;27.80;1.00
75821;DHT22;64454;51.984;9.838;2023-07-13T14:42:11;27.80;1.00
75821;DHT22;64454;51.984;9.838;2023-07-13T14:44:39;27.90;1.00
75821;DHT22;64454;51.984;9.838;2023-07-13T14:47:07;27.60;1.00
75821;DHT22;64454;51.984;9.838;2023-07-13T14:49:37;27.40;1.00
75821;DHT22;64454;51.984;9.838;2023-07-13T14:52:12;27.20;1.00
75821;DHT22;64454;51.984;9.838;2023-07-13T14:54:40;26.80;1.00
75821;DHT22;64454;51.984;9.838;2023-07-13T14:57:10;26.60;1.00
75821;DHT22;64454;51.984;9.838;2023-07-13T14:59:39;26.30;1.00
75821;DHT22;64454;51.984;9.838;2023-07-13T15:02:22;26.20;1.00
75821;DHT22;64454;51.984;9.838;2023-07-13T15:04:53;25.90;1.00
75821;DHT22;64454;51.984;9.838;2023-07-13T15:07:21;25.00;1.00
75821;DHT22;64454;51.984;9.838;2023-07-13T15:09:48;24.50;1.00
75821;DHT22;64454;51.984;9.838;2023-07-13T15:12:16;24.00;1.00
75821;DHT22;64454;51.984;9.838;2023-07-13T15:14:44;23.40;1.00
75821;DHT22;64454;51.984;9.838;2023-07-13T15:17:23;23.00;1.00
75821;DHT22;64454;51.984;9.838;2023-07-13T15:19:54;22.80;1.00
75821;DHT22;64454;51.984;9.838;2023-07-13T15:22:21;22.70;1.00
75821;DHT22;64454;51.984;9.838;2023-07-13T15:24:48;22.60;1.00
75821;DHT22;64454;51.984;9.838;2023-07-13T15:27:15;22.60;1.00
75821;DHT22;64454;51.984;9.838;2023-07-13T15:29:43;22.50;1.00
75821;DHT22;64454;51.984;9.838;2023-07-13T15:32:13;22.30;1.00
75821;DHT22;64454;51.984;9.838;2023-07-13T15:34:40;22.30;1.00
75821;DHT22;64454;51.984;9.838;2023-07-13T15:37:13;22.20;1.00
75821;DHT22;64454;51.984;9.838;2023-07-13T15:39:41;22.00;1.00
75821;DHT22;64454;51.984;9.838;2023-07-13T15:42:13;21.90;1.00
75821;DHT22;64454;51.984;9.838;2023-07-13T15:44:41;21.90;1.00
75821;DHT22;64454;51.984;9.838;2023-07-13T15:47:11;21.90;1.00
75821;DHT22;64454;51.984;9.838;2023-07-13T15:49:40;21.80;1.00
75821;DHT22;64454;51.984;9.838;2023-07-13T15:52:15;21.70;1.00
75821;DHT22;64454;51.984;9.838;2023-07-13T15:54:44;21.40;1.00
75821;DHT22;64454;51.984;9.838;2023-07-13T15:57:11;21.40;1.00
75821;DHT22;64454;51.984;9.838;2023-07-13T15:59:39;21.40;1.00
75821;DHT22;64454;51.984;9.838;2023-07-13T16:02:13;21.60;1.00
75821;DHT22;64454;51.984;9.838;2023-07-13T16:04:43;21.60;1.00
75821;DHT22;64454;51.984;9.838;2023-07-13T16:07:10;21.60;1.00
75821;DHT22;64454;51.984;9.838;2023-07-13T16:09:40;21.60;1.00
75821;DHT22;64454;51.984;9.838;2023-07-13T16:12:09;21.60;1.00
75821;DHT22;64454;51.984;9.838;2023-07-13T16:14:37;21.40;1.00
75821;DHT22;64454;51.984;9.838;2023-07-13T16:17:04;21.30;1.00